createdAt,value
2019-03-20T00:01:49.640Z,4.63
2019-03-20T00:04:19.537Z,4.23
2019-03-20T00:06:49.529Z,4.50
2019-03-20T00:09:19.535Z,3.73
2019-03-20T00:11:49.535Z,4.90
2019-03-20T00:14:19.434Z,4.00
2019-03-20T00:16:49.407Z,4.07
2019-03-20T00:19:19.284Z,4.03
2019-03-20T00:21:49.149Z,4.00
2019-03-20T00:24:19.119Z,4.40
2019-03-20T00:26:49.035Z,3.73
2019-03-20T00:29:18.918Z,4.00
2019-03-20T00:31:48.802Z,3.70
2019-03-20T00:34:18.724Z,3.70
2019-03-20T00:36:48.563Z,3.37
2019-03-20T00:39:18.480Z,3.97
2019-03-20T00:41:48.395Z,3.93
2019-03-20T00:44:18.293Z,4.03
2019-03-20T00:46:48.183Z,4.13
2019-03-20T00:49:18.142Z,3.63
2019-03-20T00:51:49.012Z,3.30
2019-03-20T00:54:18.870Z,3.80
2019-03-20T00:56:48.793Z,3.47
2019-03-20T00:59:18.679Z,3.50
2019-03-20T01:01:48.567Z,3.97
2019-03-20T01:04:18.880Z,3.33
2019-03-20T01:06:48.749Z,3.70
2019-03-20T01:09:18.659Z,4.37
2019-03-20T01:11:48.558Z,3.47
2019-03-20T01:14:18.459Z,3.37
2019-03-20T01:16:48.355Z,3.93
2019-03-20T01:19:18.208Z,3.80
2019-03-20T01:21:48.140Z,4.37
2019-03-20T01:24:18.026Z,3.20
2019-03-20T01:26:47.969Z,4.00
2019-03-20T01:29:17.961Z,4.50
2019-03-20T01:31:51.003Z,3.73
2019-03-20T01:34:20.956Z,3.87
2019-03-20T01:36:50.880Z,4.20
2019-03-20T01:39:20.859Z,4.10
2019-03-20T01:41:50.854Z,4.17
2019-03-20T01:44:20.745Z,3.73
2019-03-20T01:46:50.783Z,4.10
2019-03-20T01:49:20.716Z,3.63
2019-03-20T01:51:51.465Z,4.30
2019-03-20T01:54:21.588Z,4.07
2019-03-20T01:56:51.502Z,4.10
2019-03-20T01:59:21.422Z,4.57
2019-03-20T02:01:51.307Z,3.97
2019-03-20T02:04:21.306Z,3.63
2019-03-20T02:06:51.203Z,3.40
2019-03-20T02:09:21.202Z,4.07
2019-03-20T02:11:51.250Z,3.80
2019-03-20T02:14:21.243Z,4.23
2019-03-20T02:16:51.258Z,4.43
2019-03-20T02:19:21.278Z,3.63
2019-03-20T02:21:51.342Z,4.83
2019-03-20T02:24:21.244Z,4.27
2019-03-20T02:26:51.335Z,4.17
2019-03-20T02:29:21.274Z,4.37
2019-03-20T02:31:51.264Z,4.80
2019-03-20T02:34:21.303Z,4.60
2019-03-20T02:36:51.196Z,4.80
2019-03-20T02:39:21.110Z,4.43
2019-03-20T02:41:51.002Z,4.47
2019-03-20T02:44:21.016Z,4.43
2019-03-20T02:46:50.921Z,5.03
2019-03-20T02:49:20.852Z,4.13
2019-03-20T02:51:50.750Z,4.03
2019-03-20T02:54:20.683Z,4.37
2019-03-20T02:56:50.578Z,4.40
2019-03-20T02:59:20.493Z,4.40
2019-03-20T03:01:50.429Z,4.80
2019-03-20T03:04:20.423Z,4.70
2019-03-20T03:06:50.458Z,3.90
2019-03-20T03:09:20.542Z,4.00
2019-03-20T03:11:50.513Z,4.63
2019-03-20T03:14:20.589Z,4.47
2019-03-20T03:16:50.518Z,4.50
2019-03-20T03:19:20.441Z,4.60
2019-03-20T03:21:50.407Z,5.33
2019-03-20T03:24:20.415Z,4.73
2019-03-20T03:26:50.403Z,4.90
2019-03-20T03:29:20.498Z,5.20
2019-03-20T03:31:50.520Z,5.13
2019-03-20T03:34:20.537Z,4.30
2019-03-20T03:36:50.556Z,4.57
2019-03-20T03:39:20.565Z,4.43
2019-03-20T03:41:50.621Z,5.53
2019-03-20T03:44:20.657Z,4.93
2019-03-20T03:46:50.623Z,5.13
2019-03-20T03:49:20.616Z,5.33
2019-03-20T03:51:50.603Z,5.17
2019-03-20T03:54:20.582Z,5.27
2019-03-20T03:56:50.612Z,5.07
2019-03-20T03:59:20.499Z,4.70
2019-03-20T04:01:50.521Z,4.73
2019-03-20T04:04:21.423Z,5.10
2019-03-20T04:06:52.420Z,4.40
2019-03-20T04:09:22.321Z,4.50
2019-03-20T04:11:52.190Z,4.10
2019-03-20T04:14:22.096Z,4.50
2019-03-20T04:16:52.133Z,4.70
2019-03-20T04:19:22.030Z,4.23
2019-03-20T04:21:51.968Z,3.83
2019-03-20T04:24:21.954Z,3.60
2019-03-20T04:26:51.897Z,4.40
2019-03-20T04:29:21.898Z,4.70
2019-03-20T04:31:51.866Z,4.73
2019-03-20T04:34:21.867Z,3.77
2019-03-20T04:36:51.748Z,3.67
2019-03-20T04:39:21.647Z,4.03
2019-03-20T04:41:51.586Z,3.83
2019-03-20T04:44:21.475Z,4.03
2019-03-20T04:46:51.419Z,3.53
2019-03-20T04:49:21.298Z,4.27
2019-03-20T04:51:51.258Z,4.27
2019-03-20T04:54:21.151Z,4.10
2019-03-20T04:56:51.027Z,3.43
2019-03-20T04:59:20.916Z,3.70
2019-03-20T05:01:50.802Z,4.47
2019-03-20T05:04:20.700Z,4.50
2019-03-20T05:06:58.711Z,4.37
2019-03-20T05:09:22.170Z,4.73
2019-03-20T05:11:52.050Z,4.57
2019-03-20T05:14:22.104Z,4.23
2019-03-20T05:16:52.030Z,5.23
2019-03-20T05:19:22.000Z,4.50
2019-03-20T05:21:51.924Z,4.10
2019-03-20T05:24:21.815Z,4.53
2019-03-20T05:26:51.736Z,4.27
2019-03-20T05:29:21.612Z,4.73
2019-03-20T05:31:51.511Z,3.97
2019-03-20T05:34:21.389Z,3.90
2019-03-20T05:36:51.366Z,4.40
2019-03-20T05:39:21.276Z,4.13
2019-03-20T05:41:51.206Z,4.20
2019-03-20T05:44:22.360Z,4.10
2019-03-20T05:46:52.346Z,4.03
2019-03-20T05:49:22.435Z,4.00
2019-03-20T05:51:52.533Z,4.67
2019-03-20T05:54:22.659Z,4.13
2019-03-20T05:56:52.685Z,4.23
2019-03-20T05:59:22.725Z,4.63
2019-03-20T06:01:52.703Z,4.67
2019-03-20T06:04:22.583Z,3.97
2019-03-20T06:06:52.557Z,6.10
2019-03-20T06:09:22.601Z,3.77
2019-03-20T06:11:52.490Z,4.37
2019-03-20T06:14:22.588Z,3.83
2019-03-20T06:16:52.558Z,3.90
2019-03-20T06:19:22.500Z,3.67
2019-03-20T06:21:52.488Z,4.07
2019-03-20T06:24:22.404Z,3.60
2019-03-20T06:26:52.409Z,4.10
2019-03-20T06:29:23.544Z,3.57
2019-03-20T06:31:53.520Z,3.50
2019-03-20T06:34:23.569Z,3.17
2019-03-20T06:36:53.586Z,3.70
2019-03-20T06:39:23.599Z,3.40
2019-03-20T06:41:53.635Z,3.47
2019-03-20T06:44:23.551Z,3.33
2019-03-20T06:46:53.439Z,3.83
2019-03-20T06:49:23.389Z,3.57
2019-03-20T06:51:53.283Z,3.20
2019-03-20T06:54:24.321Z,3.40
2019-03-20T06:56:54.392Z,3.00
2019-03-20T06:59:30.164Z,3.27
2019-03-20T07:02:02.979Z,3.20
2019-03-20T07:04:53.572Z,3.20
2019-03-20T07:07:43.170Z,3.40
2019-03-20T07:10:22.283Z,2.97
2019-03-20T07:12:52.275Z,3.07
2019-03-20T07:15:22.290Z,3.43
2019-03-20T07:17:52.294Z,3.30
2019-03-20T07:20:22.315Z,3.47
2019-03-20T07:22:52.368Z,3.03
2019-03-20T07:25:23.425Z,3.70
2019-03-20T07:27:53.492Z,3.17
2019-03-20T07:30:23.498Z,2.90
2019-03-20T07:32:53.465Z,3.40
2019-03-20T07:35:23.368Z,3.57
2019-03-20T07:37:56.158Z,3.70
2019-03-20T07:40:24.918Z,3.73
2019-03-20T07:42:54.836Z,3.50
2019-03-20T07:45:24.723Z,3.83
2019-03-20T07:47:54.671Z,4.10
2019-03-20T07:50:24.584Z,3.50
2019-03-20T07:52:54.513Z,3.07
2019-03-20T07:55:24.544Z,3.63
2019-03-20T07:57:54.498Z,3.80
2019-03-20T08:00:24.373Z,3.77
2019-03-20T08:02:54.246Z,3.70
2019-03-20T08:05:29.233Z,3.30
2019-03-20T08:08:06.385Z,3.27
2019-03-20T08:10:27.348Z,3.53
2019-03-20T08:12:57.286Z,2.90
2019-03-20T08:15:27.161Z,3.53
2019-03-20T08:17:57.071Z,3.20
2019-03-20T08:20:29.890Z,2.77
2019-03-20T08:22:59.736Z,3.07
2019-03-20T08:25:29.635Z,2.80
2019-03-20T08:27:59.527Z,3.00
2019-03-20T08:30:29.409Z,3.20
2019-03-20T08:32:59.335Z,2.93
2019-03-20T08:35:29.291Z,2.60
2019-03-20T08:37:59.222Z,2.20
2019-03-20T08:40:29.248Z,3.07
2019-03-20T08:42:59.124Z,2.80
2019-03-20T08:45:29.237Z,3.13
2019-03-20T08:47:59.285Z,2.47
2019-03-20T08:50:29.332Z,2.70
2019-03-20T08:52:59.364Z,2.20
2019-03-20T08:55:29.347Z,2.87
2019-03-20T08:57:59.391Z,2.20
2019-03-20T09:00:30.304Z,2.67
2019-03-20T09:03:00.340Z,2.93
2019-03-20T09:05:30.322Z,3.07
2019-03-20T09:08:00.228Z,2.60
2019-03-20T09:10:30.134Z,2.63
2019-03-20T09:13:00.093Z,2.93
2019-03-20T09:15:33.987Z,2.80
2019-03-20T09:18:03.991Z,2.40
2019-03-20T09:20:33.999Z,2.83
2019-03-20T09:23:04.888Z,3.00
2019-03-20T09:25:34.781Z,2.30
2019-03-20T09:28:04.805Z,2.80
2019-03-20T09:30:34.792Z,2.43
2019-03-20T09:33:04.819Z,2.77
2019-03-20T09:35:34.841Z,2.57
2019-03-20T09:38:04.849Z,3.00
2019-03-20T09:40:34.971Z,2.30
2019-03-20T09:43:05.061Z,2.67
2019-03-20T09:45:35.106Z,2.60
2019-03-20T09:48:05.084Z,2.77
2019-03-20T09:50:35.028Z,2.30
2019-03-20T09:53:04.923Z,2.67
2019-03-20T09:55:35.139Z,2.43
2019-03-20T09:58:11.629Z,2.40
2019-03-20T10:00:36.583Z,2.10
2019-03-20T10:03:07.448Z,1.93
2019-03-20T10:05:37.315Z,2.10
2019-03-20T10:08:07.247Z,2.67
2019-03-20T10:10:37.141Z,2.27
2019-03-20T10:13:07.000Z,2.57
2019-03-20T10:15:36.974Z,2.00
2019-03-20T10:18:06.852Z,2.40
2019-03-20T10:20:36.808Z,2.53
2019-03-20T10:23:06.771Z,1.97
2019-03-20T10:25:44.540Z,2.17
2019-03-20T10:28:08.222Z,2.00
2019-03-20T10:30:38.098Z,1.97
2019-03-20T10:33:07.990Z,1.87
2019-03-20T10:35:37.898Z,1.90
2019-03-20T10:38:07.764Z,2.10
2019-03-20T10:40:37.690Z,2.13
2019-03-20T10:43:07.570Z,1.67
2019-03-20T10:45:37.423Z,2.10
2019-03-20T10:48:07.326Z,2.13
2019-03-20T10:50:37.207Z,1.40
2019-03-20T10:53:07.067Z,1.50
2019-03-20T10:55:37.003Z,1.60
2019-03-20T10:58:06.940Z,1.40
2019-03-20T11:00:40.876Z,1.90
2019-03-20T11:03:12.157Z,1.70
2019-03-20T11:05:42.222Z,1.60
2019-03-20T11:08:13.221Z,1.20
2019-03-20T11:10:43.153Z,1.10
2019-03-20T11:13:13.230Z,1.20
2019-03-20T11:15:43.194Z,1.20
2019-03-20T11:18:13.220Z,1.20
2019-03-20T11:20:43.127Z,1.10
2019-03-20T11:23:13.146Z,1.10
2019-03-20T11:25:43.244Z,1.30
2019-03-20T11:28:13.166Z,1.20
2019-03-20T11:30:43.007Z,0.90
2019-03-20T11:33:13.035Z,0.90
2019-03-20T11:35:43.015Z,1.07
2019-03-20T11:38:13.005Z,1.30
2019-03-20T11:40:42.972Z,1.10
2019-03-20T11:43:12.977Z,0.80
2019-03-20T11:45:42.993Z,1.10
2019-03-20T11:48:12.966Z,1.43
2019-03-20T11:50:44.292Z,1.30
2019-03-20T11:53:14.163Z,0.80
2019-03-20T11:55:44.199Z,0.90
2019-03-20T11:58:14.268Z,1.10
2019-03-20T12:00:44.198Z,0.87
2019-03-20T12:03:14.163Z,1.17
2019-03-20T12:05:44.030Z,0.70
2019-03-20T12:08:16.472Z,1.10
2019-03-20T12:10:46.389Z,1.20
2019-03-20T12:13:16.327Z,1.43
2019-03-20T12:15:46.240Z,1.00
2019-03-20T12:18:16.190Z,1.03
2019-03-20T12:20:46.134Z,1.03
2019-03-20T12:23:16.148Z,1.37
2019-03-20T12:25:46.051Z,1.07
2019-03-20T12:28:16.036Z,1.27
2019-03-20T12:30:46.002Z,0.87
2019-03-20T12:33:15.918Z,0.80
2019-03-20T12:35:47.655Z,1.03
2019-03-20T12:38:17.660Z,0.90
2019-03-20T12:40:47.600Z,1.00
2019-03-20T12:43:17.657Z,0.80
2019-03-20T12:45:47.523Z,0.70
2019-03-20T12:48:18.802Z,0.90
2019-03-20T12:50:48.808Z,0.90
2019-03-20T12:53:21.822Z,1.23
2019-03-20T12:55:51.658Z,1.00
2019-03-20T12:58:21.604Z,0.90
2019-03-20T13:00:51.529Z,1.03
2019-03-20T13:03:21.625Z,0.70
2019-03-20T13:05:51.571Z,0.90
2019-03-20T13:08:21.650Z,0.77
2019-03-20T13:10:51.699Z,1.03
2019-03-20T13:13:21.726Z,1.00
2019-03-20T13:15:51.765Z,0.77
2019-03-20T13:18:21.745Z,1.20
2019-03-20T13:20:51.818Z,0.90
2019-03-20T13:23:33.405Z,0.70
2019-03-20T13:26:03.474Z,0.80
2019-03-20T13:28:33.495Z,1.10
2019-03-20T13:31:09.287Z,1.00
2019-03-20T13:33:39.171Z,1.00
2019-03-20T13:36:09.364Z,0.80
2019-03-20T13:38:39.398Z,0.90
2019-03-20T13:41:09.386Z,1.07
2019-03-20T13:43:39.414Z,0.90
2019-03-20T13:46:09.363Z,1.00
2019-03-20T13:48:39.268Z,1.10
2019-03-20T13:51:09.198Z,1.10
2019-03-20T13:53:39.208Z,1.30
2019-03-20T13:56:09.127Z,1.27
2019-03-20T13:58:39.012Z,0.87
2019-03-20T14:01:08.933Z,1.00
2019-03-20T14:03:38.822Z,1.00
2019-03-20T14:06:08.688Z,1.13
2019-03-20T14:08:39.558Z,0.90
2019-03-20T14:11:09.483Z,0.87
2019-03-20T14:13:39.412Z,1.20
2019-03-20T14:16:10.397Z,1.07
2019-03-20T14:18:41.302Z,0.90
2019-03-20T14:21:11.165Z,1.00
2019-03-20T14:23:41.082Z,1.00
2019-03-20T14:26:11.039Z,0.83
2019-03-20T14:28:40.975Z,1.10
2019-03-20T14:31:10.915Z,0.93
2019-03-20T14:33:40.767Z,1.00
2019-03-20T14:36:10.657Z,1.00
2019-03-20T14:38:40.541Z,0.80
2019-03-20T14:41:20.825Z,0.70
2019-03-20T14:43:42.076Z,1.00
2019-03-20T14:46:11.987Z,0.90
2019-03-20T14:48:41.877Z,0.70
2019-03-20T14:51:11.756Z,0.87
2019-03-20T14:53:42.818Z,1.07
2019-03-20T14:56:12.699Z,0.60
2019-03-20T14:58:42.756Z,0.97
2019-03-20T15:01:12.769Z,1.03
2019-03-20T15:03:42.816Z,0.90
2019-03-20T15:06:12.828Z,1.27
2019-03-20T15:08:42.806Z,1.40
2019-03-20T15:11:12.939Z,0.97
2019-03-20T15:13:42.967Z,0.90
2019-03-20T15:16:13.481Z,0.73
2019-03-20T15:18:43.387Z,1.00
2019-03-20T15:21:13.269Z,0.90
2019-03-20T15:23:43.225Z,0.87
2019-03-20T15:26:13.192Z,0.90
2019-03-20T15:28:43.102Z,0.97
2019-03-20T15:31:13.132Z,1.13
2019-03-20T15:33:43.082Z,1.40
2019-03-20T15:36:13.148Z,1.10
2019-03-20T15:38:43.050Z,0.90
2019-03-20T15:41:13.991Z,1.00
2019-03-20T15:43:44.009Z,1.00
2019-03-20T15:46:13.863Z,1.03
2019-03-20T15:48:43.820Z,0.87
2019-03-20T15:51:13.835Z,0.90
2019-03-20T15:53:44.871Z,0.93
2019-03-20T15:56:14.796Z,1.37
2019-03-20T15:58:44.693Z,1.00
2019-03-20T16:01:14.588Z,1.07
2019-03-20T16:03:47.087Z,1.20
2019-03-20T16:06:16.971Z,1.50
2019-03-20T16:08:46.902Z,1.50
2019-03-20T16:11:17.710Z,1.60
2019-03-20T16:13:47.785Z,2.57
2019-03-20T16:16:17.689Z,1.77
2019-03-20T16:18:47.674Z,1.53
2019-03-20T16:21:18.649Z,1.20
2019-03-20T16:23:48.590Z,1.23
2019-03-20T16:26:19.508Z,0.90
2019-03-20T16:28:49.486Z,0.80
2019-03-20T16:31:19.399Z,0.90
2019-03-20T16:33:49.372Z,1.13
2019-03-20T16:36:19.434Z,1.10
2019-03-20T16:38:49.314Z,1.03
2019-03-20T16:41:19.379Z,1.50
2019-03-20T16:43:49.361Z,1.50
2019-03-20T16:46:19.410Z,2.40
2019-03-20T16:48:49.382Z,1.10
2019-03-20T16:51:19.339Z,1.00
2019-03-20T16:53:49.216Z,1.27
2019-03-20T16:56:19.108Z,1.00
2019-03-20T16:58:49.023Z,0.80
2019-03-20T17:01:19.106Z,0.93
2019-03-20T17:03:49.068Z,0.87
2019-03-20T17:06:19.049Z,0.80
2019-03-20T17:08:48.928Z,0.80
2019-03-20T17:11:27.431Z,0.77
2019-03-20T17:13:50.550Z,0.93
2019-03-20T17:16:20.545Z,0.90
2019-03-20T17:18:50.507Z,0.93
2019-03-20T17:21:20.417Z,0.50
2019-03-20T17:23:50.449Z,0.70
2019-03-20T17:26:20.449Z,0.67
2019-03-20T17:28:50.487Z,0.70
2019-03-20T17:31:20.511Z,0.70
2019-03-20T17:33:50.504Z,0.63
2019-03-20T17:36:20.476Z,0.80
2019-03-20T17:38:50.530Z,0.87
2019-03-20T17:41:20.680Z,0.80
2019-03-20T17:43:50.592Z,1.00
2019-03-20T17:46:20.477Z,0.67
2019-03-20T17:48:50.484Z,0.77
2019-03-20T17:51:20.487Z,0.93
2019-03-20T17:53:50.431Z,0.77
2019-03-20T17:56:20.333Z,1.10
2019-03-20T17:58:50.253Z,1.10
2019-03-20T18:01:20.264Z,0.80
2019-03-20T18:03:50.220Z,0.90
2019-03-20T18:06:20.358Z,0.70
2019-03-20T18:08:50.512Z,0.90
2019-03-20T18:11:20.521Z,0.90
2019-03-20T18:13:50.543Z,1.10
2019-03-20T18:16:20.637Z,1.20
2019-03-20T18:18:50.758Z,1.30
2019-03-20T18:21:20.760Z,1.10
2019-03-20T18:23:50.680Z,1.30
2019-03-20T18:26:20.964Z,1.17
2019-03-20T18:28:50.968Z,1.10
2019-03-20T18:31:20.978Z,1.43
2019-03-20T18:33:51.157Z,1.13
2019-03-20T18:36:21.195Z,1.23
2019-03-20T18:38:51.208Z,1.40
2019-03-20T18:41:21.193Z,1.30
2019-03-20T18:43:51.311Z,1.10
2019-03-20T18:46:21.468Z,1.00
2019-03-20T18:48:51.455Z,1.60
2019-03-20T18:51:21.567Z,1.40
2019-03-20T18:53:51.657Z,1.50
2019-03-20T18:56:21.713Z,1.30
2019-03-20T18:58:51.712Z,1.57
2019-03-20T19:01:21.722Z,1.43
2019-03-20T19:03:51.874Z,1.73
2019-03-20T19:06:25.039Z,1.33
2019-03-20T19:08:54.966Z,1.13
2019-03-20T19:11:25.237Z,1.80
2019-03-20T19:13:55.249Z,1.43
2019-03-20T19:16:25.172Z,1.73
2019-03-20T19:18:55.101Z,1.10
2019-03-20T19:21:25.115Z,1.30
2019-03-20T19:23:55.164Z,1.20
2019-03-20T19:26:25.068Z,1.30
2019-03-20T19:28:55.306Z,1.30
2019-03-20T19:31:25.254Z,1.10
2019-03-20T19:33:56.159Z,1.33
2019-03-20T19:36:26.101Z,1.47
2019-03-20T19:38:56.550Z,1.20
2019-03-20T19:41:26.536Z,1.13
2019-03-20T19:43:56.457Z,1.37
2019-03-20T19:46:26.458Z,1.10
2019-03-20T19:48:56.359Z,1.30
2019-03-20T19:51:26.342Z,1.40
2019-03-20T19:54:00.450Z,1.30
2019-03-20T19:56:30.436Z,1.20
2019-03-20T19:59:00.474Z,1.30
2019-03-20T20:01:32.352Z,1.17
2019-03-20T20:04:04.299Z,1.20
2019-03-20T20:06:34.571Z,1.40
2019-03-20T20:09:07.082Z,1.30
2019-03-20T20:11:38.006Z,1.40
2019-03-20T20:14:07.883Z,1.10
2019-03-20T20:16:37.743Z,1.13
2019-03-20T20:19:08.634Z,1.00
2019-03-20T20:21:38.544Z,1.33
2019-03-20T20:24:08.448Z,1.43
2019-03-20T20:26:38.357Z,1.17
2019-03-20T20:29:09.236Z,0.87
2019-03-20T20:31:39.113Z,1.00
2019-03-20T20:34:09.994Z,1.23
2019-03-20T20:36:39.910Z,1.10
2019-03-20T20:39:09.823Z,1.13
2019-03-20T20:41:39.718Z,1.53
2019-03-20T20:44:09.668Z,1.43
2019-03-20T20:46:39.552Z,1.30
2019-03-20T20:49:09.462Z,0.87
2019-03-20T20:51:39.324Z,1.00
2019-03-20T20:54:09.218Z,1.20
2019-03-20T20:56:39.149Z,1.07
2019-03-20T20:59:09.023Z,1.13
2019-03-20T21:01:39.416Z,1.10
2019-03-20T21:04:09.298Z,1.37
2019-03-20T21:06:42.259Z,1.33
2019-03-20T21:09:12.136Z,0.90
2019-03-20T21:11:42.187Z,1.30
2019-03-20T21:14:13.147Z,1.30
2019-03-20T21:16:43.119Z,1.20
2019-03-20T21:19:34.106Z,1.40
2019-03-20T21:22:30.672Z,1.97
2019-03-20T21:25:00.576Z,1.20
2019-03-20T21:27:53.279Z,1.20
2019-03-20T21:30:28.823Z,1.17
2019-03-20T21:33:07.351Z,1.20
2019-03-20T21:36:13.822Z,0.90
2019-03-20T21:38:43.756Z,1.10
2019-03-20T21:41:25.359Z,1.10
2019-03-20T21:43:58.294Z,1.10
2019-03-20T21:46:33.895Z,1.00
2019-03-20T21:49:03.793Z,0.93
2019-03-20T21:51:33.714Z,0.90
2019-03-20T21:54:15.515Z,0.93
2019-03-20T21:57:01.231Z,0.90
2019-03-20T21:59:55.195Z,1.20
2019-03-20T22:02:40.804Z,1.10
2019-03-20T22:05:23.132Z,1.27
2019-03-20T22:07:48.000Z,0.90
2019-03-20T22:10:26.967Z,1.23
2019-03-20T22:13:18.985Z,1.00
2019-03-20T22:16:21.564Z,0.80
2019-03-20T22:19:12.100Z,1.00
2019-03-20T22:21:53.788Z,0.90
2019-03-20T22:24:38.551Z,0.90
2019-03-20T22:27:17.122Z,1.20
2019-03-20T22:29:47.024Z,0.90
2019-03-20T22:32:31.616Z,0.87
2019-03-20T22:35:10.427Z,1.10
2019-03-20T22:37:40.419Z,1.03
2019-03-20T22:40:19.240Z,1.37
2019-03-20T22:43:01.311Z,0.87
2019-03-20T22:45:50.868Z,0.70
2019-03-20T22:48:41.703Z,0.93
2019-03-20T22:51:37.090Z,1.10
2019-03-20T22:54:21.584Z,0.90
2019-03-20T22:57:10.023Z,0.87
2019-03-20T22:59:39.944Z,1.00
2019-03-20T23:02:18.717Z,1.00
2019-03-20T23:04:54.425Z,1.07
2019-03-20T23:07:24.484Z,1.10
2019-03-20T23:09:54.463Z,1.30
2019-03-20T23:12:24.478Z,1.03
2019-03-20T23:14:54.435Z,1.13
2019-03-20T23:17:24.356Z,1.10
2019-03-20T23:19:55.174Z,1.50
2019-03-20T23:22:26.174Z,1.03
2019-03-20T23:24:56.020Z,1.47
2019-03-20T23:27:26.851Z,1.23
2019-03-20T23:29:56.764Z,1.50
2019-03-20T23:32:26.637Z,0.90
2019-03-20T23:34:56.595Z,1.33
2019-03-20T23:37:26.779Z,1.20
2019-03-20T23:39:56.830Z,1.30
2019-03-20T23:42:26.770Z,1.27
2019-03-20T23:44:56.627Z,1.33
2019-03-20T23:47:29.523Z,1.40
2019-03-20T23:49:59.392Z,1.03
2019-03-20T23:52:29.318Z,1.67
2019-03-20T23:54:59.255Z,1.17
2019-03-20T23:57:29.200Z,1.67
2019-03-20T23:59:59.104Z,1.20
